Time;durP1;ratioP1;P1;durP2;ratioP2;P2;SDS_P1;SDS_P2;PMS_P1;PMS_P2;Temp;Humidity;BMP_temperature;BMP_pressure;BME280_temperature;BME280_humidity;BME280_pressure;Samples;Min_cycle;Max_cycle;Signal;HPM_P1;HPM_P2
2022/04/11 05:08:01;;;;;;;3.85;1.60;;;;;;;;;;4900762;29;20178;-94
2022/04/11 05:11:05;;;;;;;3.78;1.67;;;;;;;;;;4882563;29;20036;-94
2022/04/11 05:13:34;;;;;;;5.40;1.67;;;;;;;;;;4907172;29;20060;-94
2022/04/11 05:16:35;;;;;;;4.55;2.17;;;;;;;;;;4882567;29;20057;-94
2022/04/11 05:22:11;;;;;;;5.97;2.33;;;;;;;;;;4829266;29;20037;-94
2022/04/11 05:25:24;;;;;;;;;;;;;;;;;;;;;
2022/04/11 05:30:43;;;;;;;5.25;1.60;;;;;;;;;;4819457;29;20034;-95
2022/04/11 05:33:18;;;;;;;3.45;1.70;;;;;;;;;;4812258;29;20035;-94
2022/04/11 05:35:48;;;;;;;3.25;1.50;;;;;;;;;;4811187;29;20535;-93
2022/04/11 05:41:23;;;;;;;5.00;2.00;;;;;;;;;;4827905;29;20033;-95
2022/04/11 05:44:13;;;;;;;3.70;1.52;;;;;;;;;;4812374;29;20052;-96
2022/04/11 06:26:51;;;;;;;4.80;1.42;;;;;;;;;;5391075;23;20102;-75
2022/04/11 06:29:18;;;;;;;2.58;1.50;;;;;;;;;;4956770;29;20508;-76
2022/04/11 06:31:44;;;;;;;4.68;1.60;;;;;;;;;;4972465;28;20031;-76
2022/04/11 06:34:10;;;;;;;3.67;1.27;;;;;;;;;;4972775;28;20031;-75
2022/04/11 06:36:36;;;;;;;2.70;1.65;;;;;;;;;;4972752;28;20114;-75
2022/04/11 06:39:02;;;;;;;3.55;1.45;;;;;;;;;;4958172;29;20088;-75
2022/04/11 06:41:28;;;;;;;3.75;1.88;;;;;;;;;;4972549;28;20039;-75
2022/04/11 06:43:54;;;;;;;3.47;2.13;;;;;;;;;;4957998;29;20031;-76
2022/04/11 06:46:21;;;;;;;4.22;1.52;;;;;;;;;;4957445;29;20058;-76
2022/04/11 06:48:47;;;;;;;2.83;1.35;;;;;;;;;;4972515;28;20058;-76
2022/04/11 06:51:13;;;;;;;4.82;1.40;;;;;;;;;;4972447;28;20027;-76
2022/04/11 06:53:39;;;;;;;2.55;1.40;;;;;;;;;;4957629;29;20039;-76
2022/04/11 06:56:05;;;;;;;3.13;1.58;;;;;;;;;;4972250;28;20039;-76
2022/04/11 06:58:32;;;;;;;3.72;1.55;;;;;;;;;;4970634;28;20070;-77
2022/04/11 07:00:58;;;;;;;4.32;1.50;;;;;;;;;;4971044;28;20404;-78
2022/04/11 07:03:24;;;;;;;3.20;1.60;;;;;;;;;;4971406;28;20042;-80
2022/04/11 07:05:50;;;;;;;3.78;1.85;;;;;;;;;;4971061;28;20492;-79
2022/04/11 07:08:17;;;;;;;2.83;1.50;;;;;;;;;;4971181;28;20375;-79
2022/04/11 07:10:44;;;;;;;2.85;1.52;;;;;;;;;;4971805;28;20030;-78
2022/04/11 07:13:11;;;;;;;2.53;1.45;;;;;;;;;;4956396;29;20415;-80
2022/04/11 07:15:37;;;;;;;3.88;1.75;;;;;;;;;;4956080;29;20023;-82
2022/04/11 07:18:03;;;;;;;4.05;1.77;;;;;;;;;;4937865;29;20095;-78
2022/04/11 07:20:29;;;;;;;5.93;1.67;;;;;;;;;;4938149;29;20034;-82
2022/04/11 07:22:55;;;;;;;3.65;1.30;;;;;;;;;;4952613;29;20039;-79
2022/04/11 07:25:24;;;;;;;2.13;1.50;;;;;;;;;;4952164;28;20023;-81
2022/04/11 07:27:50;;;;;;;2.83;1.52;;;;;;;;;;4937422;29;20427;-81
2022/04/11 07:30:16;;;;;;;5.28;1.90;;;;;;;;;;4937632;29;20099;-81
2022/04/11 07:32:43;;;;;;;3.78;1.90;;;;;;;;;;4952320;29;20122;-80
2022/04/11 07:35:09;;;;;;;2.80;1.50;;;;;;;;;;4937816;29;20042;-81
2022/04/11 07:37:35;;;;;;;2.80;1.58;;;;;;;;;;4951982;29;20043;-80
2022/04/11 07:40:02;;;;;;;2.80;1.42;;;;;;;;;;4952358;29;20028;-80
2022/04/11 07:42:28;;;;;;;3.05;1.23;;;;;;;;;;4952195;29;20031;-81
2022/04/11 07:44:54;;;;;;;7.28;1.75;;;;;;;;;;4952076;29;20392;-80
2022/04/11 07:47:20;;;;;;;4.32;1.38;;;;;;;;;;4952208;29;20493;-80
2022/04/11 07:49:46;;;;;;;3.40;1.55;;;;;;;;;;4937523;29;20110;-79
2022/04/11 07:52:13;;;;;;;3.17;1.30;;;;;;;;;;4952165;29;20031;-81
2022/04/11 07:54:39;;;;;;;6.28;1.95;;;;;;;;;;4956643;29;20100;-82
2022/04/11 07:57:05;;;;;;;5.63;1.52;;;;;;;;;;4971362;28;20118;-84
2022/04/11 07:59:32;;;;;;;4.18;1.63;;;;;;;;;;4971102;28;20023;-81
2022/04/11 08:01:58;;;;;;;3.25;1.75;;;;;;;;;;4956595;29;20067;-89
2022/04/11 08:04:24;;;;;;;5.30;1.90;;;;;;;;;;4971137;28;20027;-78
2022/04/11 08:06:50;;;;;;;3.55;1.60;;;;;;;;;;4956346;29;20110;-80
2022/04/11 08:09:16;;;;;;;3.80;1.60;;;;;;;;;;4970539;28;20041;-80
2022/04/11 08:11:59;;;;;;;4.05;1.77;;;;;;;;;;5108283;23;20047;-94
2022/04/11 08:28:38;;;;;;;4.05;1.90;;;;;;;;;;4950656;29;20042;-91
2022/04/11 08:31:04;;;;;;;5.40;2.15;;;;;;;;;;4923786;29;20488;-90
2022/04/11 08:33:39;;;;;;;3.78;1.73;;;;;;;;;;4926459;29;20397;-90
2022/04/11 08:54:30;;;;;;;3.73;2.10;;;;;;;;;;5403637;23;20106;-90
2022/04/11 08:56:56;;;;;;;2.03;1.38;;;;;;;;;;5267789;23;20435;-94
2022/04/11 08:59:34;;;;;;;5.75;1.58;;;;;;;;;;4927294;29;20556;-91
2022/04/11 09:05:07;;;;;;;4.00;1.65;;;;;;;;;;4964665;29;20045;-93
2022/04/11 09:14:19;;;;;;;3.95;1.90;;;;;;;;;;4880664;29;20079;-91
2022/04/11 09:22:49;;;;;;;3.70;1.80;;;;;;;;;;4938500;23;19993;-92
2022/04/11 09:58:01;;;;;;;4.72;2.00;;;;;;;;;;5101489;23;20127;-90
2022/04/11 10:00:37;;;;;;;5.05;1.75;;;;;;;;;;4910462;29;20096;-91
2022/04/11 10:06:00;;;;;;;3.22;1.70;;;;;;;;;;5279144;23;20110;-89
2022/04/11 10:08:51;;;;;;;9.80;2.03;;;;;;;;;;4923777;29;20043;-89
2022/04/11 10:11:21;;;;;;;1.92;1.25;;;;;;;;;;4939749;29;20030;-88
2022/04/11 10:13:53;;;;;;;2.30;1.17;;;;;;;;;;4950953;28;20083;-89
2022/04/11 10:16:29;;;;;;;2.33;1.15;;;;;;;;;;4937520;29;20036;-90
2022/04/11 10:46:05;;;;;;;2.97;1.10;;;;;;;;;;5601472;23;20082;-93
2022/04/11 10:48:53;;;;;;;2.42;1.13;;;;;;;;;;4938635;29;20452;-91
2022/04/11 13:55:16;;;;;;;3.15;1.65;;;;;;;;;;6098738;23;20380;-94
2022/04/11 13:58:09;;;;;;;2.28;1.40;;;;;;;;;;6073950;23;20014;-93
2022/04/11 14:01:26;;;;;;;;;;;;;;;;;;;;;
2022/04/11 15:03:40;;;;;;;2.70;1.02;;;;;;;;;;6288875;22;20038;-94
2022/04/11 16:29:56;;;;;;;2.67;0.90;;;;;;;;;;6271434;22;20031;-93
2022/04/11 18:00:12;;;;;;;;;;;;;;;;;;;;;
